createdAt,value
2018-10-19T00:01:58.198Z,62.37
2018-10-19T00:04:25.136Z,62.29
2018-10-19T00:06:51.987Z,61.50
2018-10-19T00:09:19.820Z,60.98
2018-10-19T00:11:47.589Z,61.71
2018-10-19T00:14:14.619Z,59.84
2018-10-19T00:16:41.506Z,61.27
2018-10-19T00:19:09.176Z,61.31
2018-10-19T00:21:36.044Z,61.81
2018-10-19T00:24:04.250Z,61.45
2018-10-19T00:26:32.063Z,61.89
2018-10-19T00:28:59.806Z,61.81
2018-10-19T00:31:27.634Z,61.27
2018-10-19T00:33:54.476Z,62.07
2018-10-19T00:36:22.443Z,61.89
2018-10-19T00:38:49.330Z,61.83
2018-10-19T00:41:16.241Z,61.63
2018-10-19T00:43:44.153Z,59.86
2018-10-19T00:46:11.007Z,60.18
2018-10-19T00:48:37.905Z,61.55
2018-10-19T00:51:05.245Z,60.26
2018-10-19T00:53:32.160Z,61.18
2018-10-19T00:55:59.886Z,61.52
2018-10-19T00:58:27.663Z,61.32
2018-10-19T01:00:54.561Z,61.28
2018-10-19T01:03:22.270Z,61.30
2018-10-19T01:05:49.124Z,61.13
2018-10-19T01:08:15.942Z,61.59
2018-10-19T01:10:42.794Z,61.65
2018-10-19T01:13:09.677Z,61.51
2018-10-19T01:15:36.581Z,61.42
2018-10-19T01:18:04.259Z,61.97
2018-10-19T01:20:32.159Z,60.30
2018-10-19T01:22:59.925Z,59.21
2018-10-19T01:25:27.681Z,59.37
2018-10-19T01:27:55.525Z,59.23
2018-10-19T01:30:22.384Z,60.14
2018-10-19T01:32:50.245Z,60.28
2018-10-19T01:35:18.058Z,61.37
2018-10-19T01:37:44.920Z,61.31
2018-10-19T01:40:12.739Z,60.36
2018-10-19T01:42:40.583Z,60.64
2018-10-19T01:45:08.537Z,61.15
2018-10-19T01:47:36.346Z,60.55
2018-10-19T01:50:04.571Z,59.56
2018-10-19T01:52:32.181Z,59.84
2018-10-19T01:54:59.858Z,59.75
2018-10-19T01:57:26.857Z,59.96
2018-10-19T01:59:54.654Z,60.24
2018-10-19T02:02:21.511Z,60.47
2018-10-19T02:04:49.235Z,60.39
2018-10-19T02:07:17.154Z,60.83
2018-10-19T02:09:44.944Z,60.35
2018-10-19T02:12:12.707Z,60.09
2018-10-19T02:14:39.555Z,60.27
2018-10-19T02:17:07.532Z,60.28
2018-10-19T02:19:34.499Z,60.82
2018-10-19T02:22:02.346Z,61.17
2018-10-19T02:24:29.187Z,60.91
2018-10-19T02:26:56.081Z,60.89
2018-10-19T02:29:30.718Z,58.94
2018-10-19T02:31:58.427Z,59.63
2018-10-19T02:34:26.321Z,60.69
2018-10-19T02:36:53.169Z,60.15
2018-10-19T02:39:20.014Z,60.47
2018-10-19T02:41:46.861Z,60.22
2018-10-19T02:44:14.392Z,60.38
2018-10-19T02:46:41.248Z,60.32
2018-10-19T02:49:09.126Z,60.09
2018-10-19T02:51:36.512Z,60.93
2018-10-19T02:54:03.373Z,60.86
2018-10-19T02:56:30.193Z,60.57
2018-10-19T02:58:57.153Z,60.00
2018-10-19T03:01:24.009Z,59.74
2018-10-19T03:03:50.851Z,60.27
2018-10-19T03:06:17.738Z,60.93
2018-10-19T03:08:44.752Z,60.27
2018-10-19T03:11:12.534Z,59.32
2018-10-19T03:13:39.407Z,59.65
2018-10-19T03:16:06.256Z,60.78
2018-10-19T03:18:33.094Z,59.16
2018-10-19T03:20:59.947Z,59.70
2018-10-19T03:23:26.820Z,60.81
2018-10-19T03:25:54.618Z,60.71
2018-10-19T03:28:22.404Z,60.77
2018-10-19T03:30:50.222Z,61.00
2018-10-19T03:33:18.102Z,59.49
2018-10-19T03:35:45.835Z,60.75
2018-10-19T03:38:14.254Z,60.85
2018-10-19T03:40:41.089Z,60.83
2018-10-19T03:43:08.941Z,60.26
2018-10-19T03:45:36.711Z,60.64
2018-10-19T03:48:04.491Z,58.70
2018-10-19T03:50:32.469Z,59.21
2018-10-19T03:52:59.978Z,60.01
2018-10-19T03:55:27.844Z,59.33
2018-10-19T03:57:54.933Z,58.48
2018-10-19T04:00:21.864Z,60.14
2018-10-19T04:02:49.745Z,58.42
2018-10-19T04:05:17.776Z,59.26
2018-10-19T04:07:46.188Z,59.39
2018-10-19T04:10:13.616Z,60.01
2018-10-19T04:12:40.452Z,59.21
2018-10-19T04:15:08.780Z,59.29
2018-10-19T04:17:35.624Z,59.08
2018-10-19T04:20:03.460Z,60.34
2018-10-19T04:22:30.334Z,59.03
2018-10-19T04:24:58.183Z,59.06
2018-10-19T04:27:25.044Z,58.79
2018-10-19T04:29:52.895Z,58.95
2018-10-19T04:32:20.642Z,59.80
2018-10-19T04:34:47.569Z,59.16
2018-10-19T04:37:15.365Z,58.52
2018-10-19T04:39:44.183Z,58.80
2018-10-19T04:42:11.135Z,59.17
2018-10-19T04:44:38.960Z,58.67
2018-10-19T04:47:06.823Z,58.67
2018-10-19T04:49:34.678Z,59.53
2018-10-19T04:52:01.490Z,59.15
2018-10-19T04:54:28.346Z,58.82
2018-10-19T04:56:56.090Z,58.91
2018-10-19T04:59:23.922Z,59.31
2018-10-19T05:01:51.961Z,59.21
2018-10-19T05:04:18.858Z,59.02
2018-10-19T05:06:46.860Z,59.01
2018-10-19T05:09:14.326Z,59.85
2018-10-19T05:11:42.153Z,58.75
2018-10-19T05:14:10.123Z,58.71
2018-10-19T05:16:38.425Z,57.90
2018-10-19T05:19:06.571Z,57.98
2018-10-19T05:21:35.041Z,58.07
2018-10-19T05:24:02.833Z,57.82
2018-10-19T05:26:30.726Z,57.93
2018-10-19T05:28:57.655Z,58.58
2018-10-19T05:31:25.537Z,59.54
2018-10-19T05:33:55.345Z,58.62
2018-10-19T05:36:23.013Z,58.90
2018-10-19T05:38:50.878Z,58.94
2018-10-19T05:41:18.128Z,59.43
2018-10-19T05:43:45.736Z,59.43
2018-10-19T05:46:12.575Z,59.24
2018-10-19T05:48:40.672Z,59.86
2018-10-19T05:51:09.052Z,59.96
2018-10-19T05:53:35.904Z,58.47
2018-10-19T05:56:02.784Z,58.92
2018-10-19T05:58:30.671Z,59.60
2018-10-19T06:00:57.521Z,59.61
2018-10-19T06:03:24.396Z,59.54
2018-10-19T06:05:51.948Z,59.12
2018-10-19T06:08:18.806Z,59.72
2018-10-19T06:10:45.639Z,60.11
2018-10-19T06:13:13.569Z,60.26
2018-10-19T06:15:41.424Z,60.14
2018-10-19T06:18:09.200Z,59.43
2018-10-19T06:20:36.981Z,59.32
2018-10-19T06:23:04.878Z,59.29
2018-10-19T06:25:32.726Z,58.40
2018-10-19T06:27:59.616Z,58.72
2018-10-19T06:30:27.732Z,59.50
2018-10-19T06:32:55.610Z,59.36
2018-10-19T06:35:22.659Z,58.71
2018-10-19T06:37:50.301Z,56.47
2018-10-19T06:40:18.202Z,57.32
2018-10-19T06:42:45.952Z,59.12
2018-10-19T06:45:14.525Z,58.78
2018-10-19T06:47:42.354Z,57.89
2018-10-19T06:50:11.350Z,57.44
2018-10-19T06:52:39.445Z,57.90
2018-10-19T06:55:07.732Z,57.47
2018-10-19T06:57:35.386Z,57.99
2018-10-19T07:00:03.262Z,59.13
2018-10-19T07:02:31.109Z,58.17
2018-10-19T07:04:59.078Z,58.52
2018-10-19T07:07:26.967Z,59.07
2018-10-19T07:09:54.198Z,57.91
2018-10-19T07:12:21.080Z,58.27
2018-10-19T07:14:49.123Z,58.13
2018-10-19T07:17:16.375Z,57.84
2018-10-19T07:19:44.012Z,58.13
2018-10-19T07:22:10.861Z,58.29
2018-10-19T07:24:37.833Z,58.10
2018-10-19T07:27:04.656Z,59.69
2018-10-19T07:29:31.720Z,58.99
2018-10-19T07:31:58.602Z,58.95
2018-10-19T07:34:25.445Z,58.60
2018-10-19T07:36:53.067Z,59.00
2018-10-19T07:39:20.855Z,58.66
2018-10-19T07:41:48.724Z,57.92
2018-10-19T07:44:16.558Z,58.47
2018-10-19T07:46:44.090Z,57.24
2018-10-19T07:49:10.987Z,57.25
2018-10-19T07:51:38.814Z,57.71
2018-10-19T07:54:05.648Z,58.09
2018-10-19T07:56:32.529Z,57.92
2018-10-19T07:58:59.446Z,58.67
2018-10-19T08:01:26.487Z,58.71
2018-10-19T08:03:54.389Z,57.98
2018-10-19T08:06:22.249Z,58.59
2018-10-19T08:08:49.119Z,58.45
2018-10-19T08:11:15.990Z,58.00
2018-10-19T08:13:43.404Z,58.94
2018-10-19T08:16:10.223Z,58.31
2018-10-19T08:18:37.073Z,59.73
2018-10-19T08:21:04.068Z,58.85
2018-10-19T08:23:30.950Z,59.75
2018-10-19T08:25:57.820Z,59.24
2018-10-19T08:28:25.951Z,58.98
2018-10-19T08:30:52.810Z,59.11
2018-10-19T08:33:19.654Z,59.09
2018-10-19T08:35:46.754Z,59.42
2018-10-19T08:38:14.754Z,59.19
2018-10-19T08:40:41.667Z,59.65
2018-10-19T08:43:08.549Z,60.02
2018-10-19T08:45:35.461Z,59.36
2018-10-19T08:48:03.214Z,58.68
2018-10-19T08:50:31.141Z,59.11
2018-10-19T08:52:58.127Z,59.19
2018-10-19T08:55:26.103Z,58.98
2018-10-19T08:57:53.054Z,59.21
2018-10-19T09:00:20.888Z,58.26
2018-10-19T09:02:47.798Z,59.13
2018-10-19T09:05:16.679Z,59.95
2018-10-19T09:07:44.178Z,58.76
2018-10-19T09:10:11.107Z,59.26
2018-10-19T09:12:38.309Z,59.87
2018-10-19T09:15:05.772Z,59.78
2018-10-19T09:17:32.632Z,59.29
2018-10-19T09:20:00.410Z,58.49
2018-10-19T09:22:27.285Z,58.47
2018-10-19T09:24:54.187Z,59.45
2018-10-19T09:27:21.859Z,59.06
2018-10-19T09:29:49.554Z,59.04
2018-10-19T09:32:16.966Z,59.02
2018-10-19T09:34:44.427Z,59.32
2018-10-19T09:37:12.429Z,59.88
2018-10-19T09:39:40.117Z,59.57
2018-10-19T09:42:07.650Z,58.33
2018-10-19T09:44:34.605Z,59.67
2018-10-19T09:47:02.392Z,59.91
2018-10-19T09:49:29.271Z,59.13
2018-10-19T09:51:57.116Z,59.66
2018-10-19T09:54:25.065Z,59.83
2018-10-19T09:56:51.949Z,59.83
2018-10-19T09:59:18.852Z,58.97
2018-10-19T10:01:45.781Z,59.61
2018-10-19T10:04:12.655Z,60.10
2018-10-19T10:06:39.500Z,59.38
2018-10-19T10:09:11.645Z,58.84
2018-10-19T10:11:38.611Z,59.92
2018-10-19T10:14:05.526Z,59.60
2018-10-19T10:16:32.394Z,59.24
2018-10-19T10:18:59.300Z,59.57
2018-10-19T10:21:26.145Z,59.39
2018-10-19T10:23:52.991Z,60.37
2018-10-19T10:26:19.821Z,59.65
2018-10-19T10:28:46.678Z,59.62
2018-10-19T10:31:14.684Z,59.71
2018-10-19T10:33:41.463Z,59.40
2018-10-19T10:36:08.325Z,59.63
2018-10-19T10:38:35.208Z,59.49
2018-10-19T10:41:02.270Z,59.78
2018-10-19T10:43:29.132Z,58.05
2018-10-19T10:45:56.020Z,58.46
2018-10-19T10:48:22.922Z,58.03
2018-10-19T10:50:49.792Z,58.85
2018-10-19T10:53:16.868Z,59.88
2018-10-19T10:55:44.314Z,59.37
2018-10-19T10:58:12.080Z,58.64
2018-10-19T11:00:38.868Z,59.00
2018-10-19T11:03:06.662Z,59.67
2018-10-19T11:05:33.538Z,59.31
2018-10-19T11:08:01.382Z,59.29
2018-10-19T11:10:29.157Z,58.76
2018-10-19T11:12:56.046Z,57.88
2018-10-19T11:15:22.900Z,58.66
2018-10-19T11:17:49.791Z,58.34
2018-10-19T11:20:16.724Z,59.35
2018-10-19T11:22:45.038Z,59.23
2018-10-19T11:25:11.933Z,59.56
2018-10-19T11:27:38.762Z,59.29
2018-10-19T11:30:06.042Z,55.98
2018-10-19T11:32:32.982Z,57.77
2018-10-19T11:34:59.850Z,59.10
2018-10-19T11:37:26.681Z,58.96
2018-10-19T11:39:59.424Z,58.69
2018-10-19T11:42:26.361Z,59.39
2018-10-19T11:44:53.223Z,59.02
2018-10-19T11:47:20.912Z,58.58
2018-10-19T11:49:47.767Z,58.75
2018-10-19T11:52:15.489Z,58.93
2018-10-19T11:54:42.409Z,59.09
2018-10-19T11:57:09.349Z,59.25
2018-10-19T11:59:36.238Z,58.31
2018-10-19T12:02:03.110Z,58.48
2018-10-19T12:04:30.892Z,58.67
2018-10-19T12:06:58.885Z,57.88
2018-10-19T12:09:25.703Z,59.55
2018-10-19T12:11:53.361Z,59.21
2018-10-19T12:14:20.275Z,57.68
2018-10-19T12:16:47.118Z,58.17
2018-10-19T12:19:15.569Z,59.08
2018-10-19T12:21:42.397Z,58.08
2018-10-19T12:24:09.310Z,58.41
2018-10-19T12:26:37.106Z,58.13
2018-10-19T12:29:04.889Z,58.40
2018-10-19T12:31:31.737Z,55.76
2018-10-19T12:33:59.561Z,58.88
2018-10-19T12:36:26.422Z,55.82
2018-10-19T12:38:53.263Z,56.59
2018-10-19T12:41:20.246Z,58.15
2018-10-19T12:43:47.117Z,57.70
2018-10-19T12:46:20.325Z,59.02
2018-10-19T12:48:47.180Z,58.39
2018-10-19T12:51:15.089Z,58.37
2018-10-19T12:53:41.932Z,58.21
2018-10-19T12:56:09.734Z,58.31
2018-10-19T12:58:36.602Z,58.61
2018-10-19T13:01:03.498Z,56.86
2018-10-19T13:03:30.439Z,54.77
2018-10-19T13:05:57.328Z,57.42
2018-10-19T13:08:25.085Z,58.12
2018-10-19T13:10:52.110Z,58.46
2018-10-19T13:13:19.892Z,58.27
2018-10-19T13:15:46.738Z,57.39
2018-10-19T13:18:14.647Z,58.00
2018-10-19T13:20:41.466Z,56.93
2018-10-19T13:23:08.385Z,55.76
2018-10-19T13:25:35.378Z,58.80
2018-10-19T13:28:02.251Z,58.52
2018-10-19T13:30:29.108Z,59.02
2018-10-19T13:32:56.765Z,58.01
2018-10-19T13:35:23.623Z,57.57
2018-10-19T13:37:50.757Z,57.59
2018-10-19T13:40:17.601Z,58.00
2018-10-19T13:42:45.495Z,58.41
2018-10-19T13:45:12.635Z,58.72
2018-10-19T13:47:39.474Z,57.78
2018-10-19T13:50:06.533Z,57.79
2018-10-19T13:52:34.454Z,58.26
2018-10-19T13:55:01.347Z,58.33
2018-10-19T13:57:28.400Z,58.72
2018-10-19T13:59:55.772Z,56.02
2018-10-19T14:02:23.088Z,55.07
2018-10-19T14:04:50.694Z,56.89
2018-10-19T14:07:18.467Z,55.72
2018-10-19T14:09:46.274Z,56.77
2018-10-19T14:12:13.952Z,57.53
2018-10-19T14:14:46.068Z,58.32
2018-10-19T14:17:13.684Z,58.91
2018-10-19T14:19:41.993Z,58.21
2018-10-19T14:22:08.849Z,56.95
2018-10-19T14:24:36.273Z,54.93
2018-10-19T14:27:03.802Z,55.67
2018-10-19T14:29:31.598Z,54.51
2018-10-19T14:31:58.444Z,55.11
2018-10-19T14:34:26.344Z,55.11
2018-10-19T14:36:54.337Z,51.82
2018-10-19T14:39:21.197Z,52.93
2018-10-19T14:41:48.033Z,51.66
2018-10-19T14:44:14.915Z,51.38
2018-10-19T14:46:41.766Z,51.46
2018-10-19T14:49:08.594Z,52.68
2018-10-19T14:51:35.388Z,51.25
2018-10-19T14:54:02.202Z,52.56
2018-10-19T14:56:30.004Z,50.94
2018-10-19T14:58:56.818Z,50.97
2018-10-19T15:01:23.694Z,51.99
2018-10-19T15:03:50.547Z,53.42
2018-10-19T15:06:17.381Z,52.34
2018-10-19T15:08:45.138Z,51.94
2018-10-19T15:11:12.086Z,52.14
2018-10-19T15:13:39.805Z,51.33
2018-10-19T15:16:06.660Z,51.45
2018-10-19T15:18:33.502Z,51.46
2018-10-19T15:21:01.352Z,51.11
2018-10-19T15:23:28.129Z,50.71
2018-10-19T15:25:55.882Z,51.33
2018-10-19T15:28:23.676Z,51.22
2018-10-19T15:30:51.461Z,51.52
2018-10-19T15:33:19.302Z,51.07
2018-10-19T15:35:46.932Z,51.33
2018-10-19T15:38:15.697Z,51.70
2018-10-19T15:40:44.566Z,50.98
2018-10-19T15:43:12.268Z,51.36
2018-10-19T15:45:40.146Z,51.40
2018-10-19T15:48:07.981Z,51.00
2018-10-19T15:50:34.905Z,51.21
2018-10-19T15:53:02.583Z,52.64
2018-10-19T15:55:30.271Z,53.17
2018-10-19T15:57:58.105Z,51.65
2018-10-19T16:00:26.007Z,52.89
2018-10-19T16:02:53.818Z,51.01
2018-10-19T16:05:21.679Z,51.47
2018-10-19T16:07:48.532Z,51.29
2018-10-19T16:10:16.240Z,53.18
2018-10-19T16:12:45.079Z,52.09
2018-10-19T16:15:13.930Z,52.95
2018-10-19T16:17:41.840Z,53.03
2018-10-19T16:20:10.187Z,52.80
2018-10-19T16:22:38.421Z,52.30
2018-10-19T16:25:05.630Z,51.09
2018-10-19T16:27:33.377Z,52.02
2018-10-19T16:30:01.077Z,50.81
2018-10-19T16:32:28.900Z,52.26
2018-10-19T16:34:56.622Z,52.96
2018-10-19T16:37:24.309Z,51.38
2018-10-19T16:39:52.413Z,51.50
2018-10-19T16:42:20.295Z,51.84
2018-10-19T16:44:48.152Z,51.88
2018-10-19T16:47:15.919Z,51.53
2018-10-19T16:49:44.490Z,51.70
2018-10-19T16:52:12.353Z,51.29
2018-10-19T16:54:40.141Z,52.23
2018-10-19T16:57:08.005Z,50.84
2018-10-19T16:59:34.839Z,52.15
2018-10-19T17:02:02.665Z,51.61
2018-10-19T17:04:30.507Z,50.89
2018-10-19T17:06:58.195Z,51.35
2018-10-19T17:09:25.033Z,52.25
2018-10-19T17:11:52.069Z,51.28
2018-10-19T17:14:18.950Z,51.30
2018-10-19T17:16:45.960Z,51.73
2018-10-19T17:19:14.396Z,52.52
2018-10-19T17:21:42.222Z,52.21
2018-10-19T17:24:09.956Z,52.54
2018-10-19T17:26:37.798Z,52.66
2018-10-19T17:29:04.716Z,52.17
2018-10-19T17:31:31.646Z,51.98
2018-10-19T17:33:58.416Z,52.19
2018-10-19T17:36:25.243Z,52.37
2018-10-19T17:38:53.005Z,52.22
2018-10-19T17:41:19.852Z,53.03
2018-10-19T17:43:47.613Z,52.51
2018-10-19T17:46:15.544Z,52.82
2018-10-19T17:48:42.413Z,53.16
2018-10-19T17:51:09.308Z,53.23
2018-10-19T17:53:36.834Z,53.43
2018-10-19T17:56:08.484Z,53.25
2018-10-19T17:58:35.392Z,53.45
2018-10-19T18:01:02.242Z,53.59
2018-10-19T18:03:29.106Z,53.13
2018-10-19T18:05:55.976Z,53.84
2018-10-19T18:08:22.871Z,53.21
2018-10-19T18:10:50.495Z,53.65
2018-10-19T18:13:17.346Z,52.87
2018-10-19T18:15:44.672Z,53.13
2018-10-19T18:18:11.662Z,53.80
2018-10-19T18:20:38.705Z,53.46
2018-10-19T18:23:05.744Z,53.49
2018-10-19T18:25:32.576Z,53.69
2018-10-19T18:27:59.468Z,53.84
2018-10-19T18:30:26.315Z,53.42
2018-10-19T18:32:53.202Z,54.38
2018-10-19T18:35:20.073Z,53.65
2018-10-19T18:37:46.960Z,53.35
2018-10-19T18:40:14.605Z,53.90
2018-10-19T18:42:41.443Z,53.74
2018-10-19T18:45:09.280Z,53.84
2018-10-19T18:47:36.738Z,53.90
2018-10-19T18:50:04.906Z,53.95
2018-10-19T18:52:32.620Z,54.58
2018-10-19T18:55:00.504Z,54.22
2018-10-19T18:57:27.472Z,55.05
2018-10-19T18:59:54.294Z,54.17
2018-10-19T19:02:21.191Z,54.23
2018-10-19T19:04:48.841Z,53.86
2018-10-19T19:07:16.201Z,53.98
2018-10-19T19:09:47.620Z,54.03
2018-10-19T19:12:15.510Z,54.08
2018-10-19T19:14:42.412Z,54.41
2018-10-19T19:17:09.463Z,54.07
2018-10-19T19:19:36.416Z,54.17
2018-10-19T19:22:03.257Z,54.58
2018-10-19T19:24:36.704Z,54.04
2018-10-19T19:27:03.589Z,54.09
2018-10-19T19:29:31.489Z,54.71
2018-10-19T19:31:59.288Z,54.25
2018-10-19T19:34:30.961Z,54.30
2018-10-19T19:36:58.751Z,53.76
2018-10-19T19:39:26.493Z,54.75
2018-10-19T19:41:59.062Z,54.72
2018-10-19T19:44:25.928Z,54.54
2018-10-19T19:46:52.888Z,54.41
2018-10-19T19:49:25.454Z,54.69
2018-10-19T19:51:52.341Z,54.94
2018-10-19T19:54:21.849Z,55.54
2018-10-19T19:56:48.703Z,54.63
2018-10-19T19:59:16.520Z,54.68
2018-10-19T20:01:44.544Z,54.35
2018-10-19T20:04:11.564Z,55.13
2018-10-19T20:06:38.663Z,54.02
2018-10-19T20:09:05.963Z,54.36
2018-10-19T20:11:32.902Z,53.68
2018-10-19T20:14:00.905Z,53.70
2018-10-19T20:16:27.871Z,55.05
2018-10-19T20:18:54.801Z,54.44
2018-10-19T20:21:21.735Z,54.42
2018-10-19T20:23:48.766Z,54.41
2018-10-19T20:26:15.757Z,54.69
2018-10-19T20:28:44.299Z,54.69
2018-10-19T20:31:11.274Z,54.56
2018-10-19T20:33:38.257Z,54.38
2018-10-19T20:37:29.933Z,54.33
2018-10-19T20:39:56.853Z,55.37
2018-10-19T20:42:23.793Z,55.04
2018-10-19T20:44:50.665Z,54.71
2018-10-19T20:47:17.573Z,54.73
2018-10-19T20:49:45.335Z,54.13
2018-10-19T20:52:12.220Z,55.12
2018-10-19T20:54:39.133Z,54.28
2018-10-19T20:57:05.998Z,54.62
2018-10-19T20:59:32.859Z,55.43
2018-10-19T21:02:00.671Z,54.36
2018-10-19T21:04:28.624Z,55.45
2018-10-19T21:06:56.536Z,54.85
2018-10-19T21:09:23.387Z,54.86
2018-10-19T21:11:50.227Z,53.97
2018-10-19T21:14:17.070Z,54.31
2018-10-19T21:16:44.540Z,54.24
2018-10-19T21:19:11.436Z,54.56
2018-10-19T21:21:38.258Z,54.37
2018-10-19T21:24:05.150Z,53.84
2018-10-19T21:26:32.043Z,54.33
2018-10-19T21:28:58.956Z,54.17
2018-10-19T21:31:25.875Z,53.93
2018-10-19T21:33:52.737Z,53.49
2018-10-19T21:36:19.614Z,53.57
2018-10-19T21:38:47.339Z,53.85
2018-10-19T21:41:14.855Z,53.56
2018-10-19T21:43:41.629Z,53.06
2018-10-19T21:46:09.358Z,54.05
2018-10-19T21:48:36.219Z,53.56
2018-10-19T21:51:03.900Z,53.14
2018-10-19T21:53:30.758Z,53.47
2018-10-19T21:55:57.666Z,53.17
2018-10-19T21:58:24.509Z,53.79
2018-10-19T22:00:52.311Z,52.93
2018-10-19T22:03:20.155Z,52.86
2018-10-19T22:05:47.977Z,53.38
2018-10-19T22:08:15.887Z,53.07
2018-10-19T22:10:42.743Z,52.82
2018-10-19T22:13:10.485Z,53.02
2018-10-19T22:15:38.272Z,52.82
2018-10-19T22:18:06.106Z,52.59
2018-10-19T22:20:33.917Z,52.97
2018-10-19T22:23:00.777Z,53.00
2018-10-19T22:25:28.659Z,53.14
2018-10-19T22:27:55.471Z,52.88
2018-10-19T22:30:23.231Z,52.26
2018-10-19T22:32:51.027Z,52.70
2018-10-19T22:35:17.868Z,52.46
2018-10-19T22:37:45.526Z,53.22
2018-10-19T22:40:12.559Z,53.50
2018-10-19T22:42:39.378Z,53.84
2018-10-19T22:45:07.127Z,53.52
2018-10-19T22:47:33.979Z,53.32
2018-10-19T22:50:00.790Z,53.65
2018-10-19T22:52:27.638Z,53.94
2018-10-19T22:54:54.461Z,53.85
2018-10-19T22:57:21.274Z,53.74
2018-10-19T22:59:48.095Z,53.73
2018-10-19T23:02:14.922Z,53.41
2018-10-19T23:04:42.649Z,53.50
2018-10-19T23:07:09.580Z,53.40
2018-10-19T23:09:36.461Z,53.84
2018-10-19T23:12:03.264Z,53.57
2018-10-19T23:14:30.099Z,53.22
2018-10-19T23:16:57.870Z,53.13
2018-10-19T23:19:25.777Z,53.03
2018-10-19T23:21:52.627Z,52.71
2018-10-19T23:24:19.439Z,53.82
2018-10-19T23:26:46.360Z,53.68
2018-10-19T23:29:15.151Z,53.54
2018-10-19T23:31:42.128Z,54.32
2018-10-19T23:34:09.823Z,53.38
2018-10-19T23:36:36.837Z,53.31
2018-10-19T23:39:06.327Z,53.17
2018-10-19T23:41:34.040Z,53.19
2018-10-19T23:44:01.727Z,53.23
2018-10-19T23:46:29.499Z,53.43
2018-10-19T23:48:56.359Z,52.89
2018-10-19T23:51:23.245Z,53.50
2018-10-19T23:53:51.091Z,52.74
2018-10-19T23:56:17.962Z,52.76
2018-10-19T23:58:45.811Z,52.65
